Amsterdam, Netherlands
Current Conditions -  °F | °C
As of 8:25 PM on Saturday 20 Dec 2014 (Local Time) from EHAM Reporting Station
Few Clouds Few Clouds  
Wind Chill: 37°   Ceiling: Unl
Heat Index: 45°   Visibility: 6mi
Dew Point: 37°   Wind: 18mph
Humidity: 76%   Direction: 300°WNW
Pressure: 30.21"   Gusts: NA
Location:  52.35°N, 4.9°E
Report Text: EHAM 201925Z 30016KT 9999 FEW028 07/03 Q1023 NOSIG
Loading
Personal Weather Stations






























Interactive Weather Map New forecast layout! Learn more

10-Day Weather Forecast

Advertisements
Track Severe Weather on mobile